Time;durP1;ratioP1;P1;durP2;ratioP2;P2;SDS_P1;SDS_P2;PMS_P1;PMS_P2;Temp;Humidity;BMP_temperature;BMP_pressure;BME280_temperature;BME280_humidity;BME280_pressure;Samples;Min_cycle;Max_cycle;Signal;HPM_P1;HPM_P2
2022/05/12 00:00:59;;;;;;;3.97;1.50;;;;;;;16.43;56.15;101280.91;5214919;28;20022;-68
2022/05/12 00:03:30;;;;;;;5.13;1.40;;;;;;;16.24;56.50;101299.16;5210561;28;20026;-68
2022/05/12 00:06:02;;;;;;;6.57;1.70;;;;;;;16.47;55.81;101301.81;5214254;28;20046;-68
2022/05/12 00:08:33;;;;;;;5.43;1.50;;;;;;;16.49;55.49;101297.25;5214187;28;20076;-68
2022/05/12 00:11:04;;;;;;;5.37;1.80;;;;;;;16.38;56.04;101311.31;5216553;28;20055;-68
2022/05/12 00:13:36;;;;;;;7.80;1.47;;;;;;;16.31;55.99;101298.59;5218503;28;20018;-68
2022/05/12 00:16:08;;;;;;;6.67;1.90;;;;;;;15.99;56.80;101298.38;5221958;28;20116;-68
2022/05/12 00:18:39;;;;;;;14.50;1.70;;;;;;;16.37;55.79;101307.00;5233190;28;20384;-68
2022/05/12 00:21:10;;;;;;;5.43;1.97;;;;;;;16.02;56.69;101314.03;5234066;28;20029;-68
2022/05/12 00:23:56;;;;;;;7.50;1.80;;;;;;;16.06;56.57;101324.22;5228188;28;20038;-68
2022/05/12 00:26:30;;;;;;;4.80;1.30;;;;;;;15.90;56.88;101311.31;5234209;28;20644;-68
2022/05/12 00:29:07;;;;;;;6.47;1.48;;;;;;;16.00;56.80;101315.94;5214265;28;20034;-69
2022/05/12 00:31:41;;;;;;;10.47;1.93;;;;;;;16.05;56.60;101324.34;5218629;28;20498;-68
2022/05/12 00:34:14;;;;;;;4.80;2.00;;;;;;;15.96;56.78;101326.69;5234462;28;20314;-68
2022/05/12 00:36:46;;;;;;;7.70;2.60;;;;;;;15.87;57.31;101332.66;5227152;28;20037;-67
2022/05/12 00:39:17;;;;;;;6.27;1.60;;;;;;;15.69;57.81;101335.72;5214132;28;20026;-67
2022/05/12 00:41:48;;;;;;;5.70;1.50;;;;;;;15.80;57.20;101336.72;5225291;28;20068;-67
2022/05/12 00:44:19;;;;;;;7.77;1.97;;;;;;;15.63;57.86;101346.75;5228847;28;20026;-68
2022/05/12 00:46:52;;;;;;;4.43;1.70;;;;;;;15.65;57.88;101336.91;5224680;28;20476;-68
2022/05/12 00:49:29;;;;;;;6.43;2.13;;;;;;;15.76;57.54;101336.09;5231458;28;20504;-68
2022/05/12 00:52:11;;;;;;;7.40;1.37;;;;;;;15.34;58.92;101344.44;5234362;28;20384;-68
2022/05/12 00:54:56;;;;;;;5.83;1.50;;;;;;;15.63;58.03;101346.75;5219150;28;20401;-68
2022/05/12 00:57:35;;;;;;;4.90;1.23;;;;;;;15.45;58.45;101349.78;5223316;28;20033;-68
2022/05/12 01:00:10;;;;;;;6.10;1.57;;;;;;;15.53;58.14;101351.00;5231076;28;20021;-68
2022/05/12 01:02:45;;;;;;;8.93;1.90;;;;;;;15.05;60.04;101350.84;5233768;28;20045;-68
2022/05/12 01:05:17;;;;;;;6.03;2.13;;;;;;;15.21;59.39;101353.25;5232640;28;20046;-68
2022/05/12 01:07:51;;;;;;;4.27;1.57;;;;;;;15.35;58.90;101354.03;5234346;28;20034;-68
2022/05/12 01:10:23;;;;;;;3.63;1.60;;;;;;;15.16;59.19;101355.38;5219808;28;20116;-69
2022/05/12 01:12:56;;;;;;;6.07;1.30;;;;;;;14.96;60.13;101359.41;5212010;28;20122;-68
2022/05/12 01:15:27;;;;;;;6.10;1.70;;;;;;;14.99;60.37;101365.31;5212387;28;20030;-68
2022/05/12 01:18:11;;;;;;;5.37;1.70;;;;;;;15.11;59.85;101365.41;5212886;28;20041;-68
2022/05/12 01:20:42;;;;;;;8.95;2.55;;;;;;;14.91;60.54;101372.91;5214684;28;20072;-68
2022/05/12 01:23:31;;;;;;;5.13;1.70;;;;;;;15.07;60.00;101374.47;5221045;28;20057;-68
2022/05/12 01:26:09;;;;;;;8.27;1.90;;;;;;;14.84;61.16;101364.59;5211960;28;20117;-68
2022/05/12 01:28:40;;;;;;;7.60;1.93;;;;;;;15.14;60.20;101381.00;5213146;28;20021;-68
2022/05/12 01:31:16;;;;;;;6.27;2.67;;;;;;;15.17;60.13;101386.06;5210691;28;20224;-68
2022/05/12 01:33:51;;;;;;;8.13;2.47;;;;;;;15.23;60.18;101383.00;5216966;28;20438;-68
2022/05/12 01:36:22;;;;;;;9.68;2.47;;;;;;;15.17;60.64;101390.50;5219580;28;20400;-68
2022/05/12 01:38:53;;;;;;;9.67;2.23;;;;;;;15.08;60.96;101387.56;5220947;28;20112;-69
2022/05/12 01:41:25;;;;;;;10.67;2.60;;;;;;;14.68;62.69;101390.31;5213388;28;20014;-68
2022/05/12 01:43:56;;;;;;;13.50;2.57;;;;;;;14.87;62.09;101400.47;5214514;28;20045;-68
2022/05/12 01:46:28;;;;;;;8.20;2.60;;;;;;;14.96;61.63;101401.59;5213709;28;20038;-68
2022/05/12 01:48:59;;;;;;;7.37;1.80;;;;;;;14.86;62.02;101401.41;5222505;28;20037;-68
2022/05/12 01:51:35;;;;;;;10.20;2.47;;;;;;;14.92;62.08;101403.63;5212541;28;20041;-68
2022/05/12 01:54:06;;;;;;;10.90;2.47;;;;;;;14.71;62.23;101387.47;5224235;28;20030;-68
2022/05/12 01:56:37;;;;;;;7.50;2.43;;;;;;;14.82;61.84;101406.03;5231466;28;20040;-68
2022/05/12 01:59:09;;;;;;;8.03;2.20;;;;;;;14.27;64.11;101414.94;5230890;28;20081;-68
2022/05/12 02:01:40;;;;;;;8.00;2.43;;;;;;;14.49;63.41;101421.41;5224434;28;20029;-68
2022/05/12 02:04:11;;;;;;;10.20;2.17;;;;;;;14.58;63.02;101422.56;5218711;28;20562;-68
2022/05/12 02:06:44;;;;;;;11.47;3.40;;;;;;;14.62;62.85;101425.84;5213491;28;20667;-68
2022/05/12 02:09:16;;;;;;;8.77;2.37;;;;;;;14.64;62.67;101421.31;5215961;28;20072;-68
2022/05/12 02:11:48;;;;;;;9.93;2.03;;;;;;;14.15;64.78;101435.03;5212595;28;20026;-68
2022/05/12 02:14:19;;;;;;;7.73;2.27;;;;;;;14.44;63.40;101439.31;5212956;28;20045;-68
2022/05/12 02:16:50;;;;;;;15.10;2.97;;;;;;;14.37;63.31;101425.72;5216422;28;20036;-68
2022/05/12 02:19:22;;;;;;;9.27;2.67;;;;;;;14.26;63.85;101436.94;5211220;28;20080;-68
2022/05/12 02:21:54;;;;;;;10.93;2.77;;;;;;;14.13;64.30;101444.84;5210554;28;20500;-69
2022/05/12 02:24:26;;;;;;;7.27;2.17;;;;;;;14.35;63.38;101448.66;5213914;28;20044;-68
2022/05/12 02:26:57;;;;;;;9.23;2.73;;;;;;;14.36;63.11;101446.88;5210996;28;20030;-68
2022/05/12 02:29:28;;;;;;;12.07;2.40;;;;;;;14.30;63.47;101445.50;5221862;28;20432;-68
2022/05/12 02:31:59;;;;;;;11.47;3.00;;;;;;;14.13;64.07;101441.34;5211700;28;20034;-68
2022/05/12 02:34:31;;;;;;;8.67;2.50;;;;;;;14.19;63.54;101443.56;5224714;28;20498;-68
2022/05/12 02:37:03;;;;;;;10.10;3.00;;;;;;;14.14;63.71;101458.81;5216016;28;20037;-68
2022/05/12 02:39:37;;;;;;;12.60;3.43;;;;;;;14.02;64.38;101461.31;5218940;28;20030;-68
2022/05/12 02:42:10;;;;;;;7.97;2.50;;;;;;;14.08;64.14;101461.88;5213338;28;20033;-68
2022/05/12 02:44:41;;;;;;;10.10;2.70;;;;;;;13.99;64.50;101461.53;5229540;28;20539;-68
2022/05/12 02:47:12;;;;;;;6.90;2.23;;;;;;;13.96;64.57;101460.88;5232215;28;20029;-68
2022/05/12 02:49:44;;;;;;;11.33;3.27;;;;;;;14.01;64.49;101472.81;5215199;28;20030;-68
2022/05/12 02:52:15;;;;;;;14.67;3.13;;;;;;;13.94;64.73;101470.66;5216190;28;20037;-68
2022/05/12 02:54:46;;;;;;;11.03;2.57;;;;;;;13.80;65.35;101477.66;5230213;28;20026;-68
2022/05/12 02:57:18;;;;;;;5.47;2.20;;;;;;;13.81;65.47;101468.00;5222199;28;20030;-68
2022/05/12 02:59:49;;;;;;;8.33;2.80;;;;;;;13.68;66.02;101479.28;5210988;28;20041;-68
2022/05/12 03:02:21;;;;;;;8.17;3.17;;;;;;;13.54;66.79;101478.34;5210815;28;20049;-68
2022/05/12 03:04:52;;;;;;;12.93;3.40;;;;;;;13.74;65.97;101472.78;5215164;28;20037;-71
2022/05/12 03:07:23;;;;;;;11.37;3.60;;;;;;;13.71;66.40;101473.81;5212114;28;20061;-68
2022/05/12 03:09:55;;;;;;;10.03;3.13;;;;;;;13.48;67.25;101483.97;5217177;28;20041;-68
2022/05/12 03:12:26;;;;;;;17.43;4.13;;;;;;;13.61;67.36;101483.25;5209768;28;20480;-68
2022/05/12 03:14:57;;;;;;;13.40;3.63;;;;;;;13.59;67.55;101482.50;5223516;28;20034;-68
2022/05/12 03:17:29;;;;;;;9.67;3.97;;;;;;;13.49;67.70;101496.19;5226244;28;20033;-68
2022/05/12 03:20:03;;;;;;;10.53;4.37;;;;;;;13.49;67.59;101490.91;5214793;28;20018;-68
2022/05/12 03:22:35;;;;;;;12.18;4.03;;;;;;;13.50;67.90;101491.78;5211337;28;20041;-68
2022/05/12 03:25:10;;;;;;;14.83;4.50;;;;;;;13.58;67.67;101492.16;5213405;28;20026;-68
2022/05/12 03:27:41;;;;;;;13.87;4.37;;;;;;;13.46;68.49;101485.03;5217357;28;20029;-68
2022/05/12 03:30:16;;;;;;;13.03;5.00;;;;;;;13.19;69.22;101478.72;5210454;28;20084;-68
2022/05/12 03:32:48;;;;;;;12.37;4.90;;;;;;;13.13;70.13;101484.34;5228767;28;20094;-68
2022/05/12 03:35:19;;;;;;;15.90;5.53;;;;;;;13.13;70.32;101508.00;5230898;28;20041;-68
2022/05/12 03:37:50;;;;;;;14.77;5.03;;;;;;;13.19;70.16;101484.00;5216363;28;20030;-68
2022/05/12 03:40:22;;;;;;;14.93;6.27;;;;;;;13.06;71.18;101511.03;5221241;28;20123;-68
2022/05/12 03:42:58;;;;;;;16.17;6.00;;;;;;;13.12;71.32;101517.72;5218614;28;20500;-68
2022/05/12 03:45:29;;;;;;;18.43;6.23;;;;;;;13.01;71.44;101499.94;5211213;28;20029;-68
2022/05/12 03:48:01;;;;;;;15.20;6.60;;;;;;;13.05;72.03;101517.22;5229014;28;20021;-68
2022/05/12 03:50:33;;;;;;;16.93;6.83;;;;;;;12.95;72.80;101521.34;5230307;28;20480;-68
2022/05/12 03:53:04;;;;;;;20.07;6.53;;;;;;;12.73;74.19;101525.22;5227965;28;20045;-68
2022/05/12 03:55:35;;;;;;;19.63;7.20;;;;;;;12.91;73.73;101535.59;5212675;28;20480;-68
2022/05/12 03:58:07;;;;;;;37.80;9.67;;;;;;;12.83;73.84;101521.13;5210202;28;20030;-68
2022/05/12 04:00:38;;;;;;;19.93;7.90;;;;;;;12.91;73.80;101539.09;5221780;28;20009;-68
2022/05/12 04:03:09;;;;;;;20.23;7.83;;;;;;;12.95;73.80;101534.50;5218230;28;20026;-68
2022/05/12 04:05:41;;;;;;;16.80;7.70;;;;;;;12.89;74.00;101530.44;5213666;28;20069;-68
2022/05/12 04:08:13;;;;;;;18.97;7.97;;;;;;;12.72;74.94;101528.78;5214872;28;20041;-68
2022/05/12 04:10:44;;;;;;;17.37;8.57;;;;;;;12.94;74.17;101543.28;5224555;28;20129;-68
2022/05/12 04:13:16;;;;;;;21.83;9.73;;;;;;;12.87;75.04;101549.84;5210726;28;20075;-68
2022/05/12 04:15:47;;;;;;;20.83;10.00;;;;;;;12.80;75.26;101549.34;5216937;28;20109;-68
2022/05/12 04:18:19;;;;;;;19.57;8.73;;;;;;;12.83;75.34;101552.66;5215170;28;20075;-68
2022/05/12 04:20:52;;;;;;;23.33;10.30;;;;;;;12.70;76.54;101568.31;5212891;28;20033;-69
2022/05/12 04:23:23;;;;;;;22.40;11.10;;;;;;;12.69;77.39;101563.13;5211362;28;20030;-68
2022/05/12 04:25:54;;;;;;;27.33;10.80;;;;;;;12.69;77.38;101565.75;5211196;28;20072;-68
2022/05/12 04:28:26;;;;;;;22.67;10.80;;;;;;;12.72;76.95;101570.84;5214224;28;20065;-68
2022/05/12 04:30:58;;;;;;;20.63;11.03;;;;;;;12.70;76.98;101570.94;5208529;28;20084;-68
2022/05/12 04:36:19;;;;;;;23.27;11.17;;;;;;;12.53;78.74;101576.31;5212213;28;20108;-67
2022/05/12 04:38:50;;;;;;;25.07;11.33;;;;;;;12.68;78.07;101585.94;5210166;28;20026;-68
2022/05/12 04:41:21;;;;;;;22.20;11.17;;;;;;;12.68;78.18;101578.06;5219642;28;20061;-69
2022/05/12 04:43:54;;;;;;;19.13;10.30;;;;;;;12.70;78.58;101593.72;5226051;28;20041;-68
2022/05/12 04:46:27;;;;;;;21.20;11.10;;;;;;;12.69;78.74;101589.41;5225196;28;20312;-68
2022/05/12 04:48:58;;;;;;;24.53;11.13;;;;;;;12.55;79.55;101585.78;5219170;28;20452;-68
2022/05/12 04:51:30;;;;;;;31.13;13.57;;;;;;;12.62;79.63;101593.34;5221227;28;20037;-68
2022/05/12 04:54:01;;;;;;;23.10;12.03;;;;;;;12.55;79.38;101571.81;5214848;28;20084;-67
2022/05/12 04:56:32;;;;;;;28.93;13.07;;;;;;;12.73;79.53;101596.19;5225142;28;20079;-67
2022/05/12 04:59:05;;;;;;;23.60;13.20;;;;;;;12.74;79.98;101597.03;5233216;28;20061;-67
2022/05/12 05:01:37;;;;;;;21.37;13.23;;;;;;;12.79;79.78;101598.44;5221759;28;20072;-67
2022/05/12 05:04:08;;;;;;;26.47;12.77;;;;;;;12.76;80.36;101603.88;5228199;28;20521;-67
2022/05/12 05:06:39;;;;;;;28.00;13.63;;;;;;;12.71;81.03;101600.66;5228906;28;20049;-67
2022/05/12 05:09:10;;;;;;;23.40;12.03;;;;;;;12.70;81.33;101610.34;5222834;28;20048;-68
2022/05/12 05:11:42;;;;;;;29.17;15.13;;;;;;;12.80;80.84;101623.81;5216805;28;20025;-68
2022/05/12 05:14:13;;;;;;;23.10;14.73;;;;;;;12.85;80.56;101622.69;5220256;28;20075;-68
2022/05/12 05:16:44;;;;;;;28.23;13.67;;;;;;;12.97;80.24;101627.25;5216397;28;20383;-68
2022/05/12 05:19:16;;;;;;;25.87;14.90;;;;;;;12.83;81.59;101630.66;5223069;28;20041;-68
2022/05/12 05:21:48;;;;;;;29.17;14.33;;;;;;;12.67;82.72;101610.50;5233109;28;20028;-68
2022/05/12 05:24:19;;;;;;;31.07;15.77;;;;;;;12.81;82.66;101629.94;5214809;28;20026;-68
2022/05/12 05:26:51;;;;;;;32.17;16.47;;;;;;;12.76;83.44;101631.97;5225700;28;20025;-68
2022/05/12 05:29:22;;;;;;;26.53;16.23;;;;;;;12.73;84.24;101630.34;5215726;28;20042;-72
2022/05/12 05:31:53;;;;;;;29.13;16.03;;;;;;;12.83;83.76;101639.41;5226683;28;20034;-69
2022/05/12 05:34:25;;;;;;;23.70;14.30;;;;;;;12.95;83.32;101645.75;5225544;28;20061;-68
2022/05/12 05:36:56;;;;;;;27.13;16.30;;;;;;;12.97;83.69;101652.72;5219679;28;20072;-68
2022/05/12 05:39:28;;;;;;;32.50;17.30;;;;;;;12.97;83.87;101657.97;5234287;28;20056;-68
2022/05/12 05:42:03;;;;;;;31.20;17.83;;;;;;;13.00;84.08;101663.06;5228080;28;20044;-69
2022/05/12 05:44:35;;;;;;;28.93;16.70;;;;;;;12.94;85.04;101664.25;5215429;28;20030;-68
2022/05/12 05:47:07;;;;;;;36.03;17.73;;;;;;;12.95;84.95;101671.22;5217381;28;20029;-68
2022/05/12 05:49:41;;;;;;;31.60;18.27;;;;;;;12.93;84.95;101666.00;5228263;28;20487;-69
2022/05/12 05:55:02;;;;;;;35.50;19.47;;;;;;;12.98;86.10;101683.31;5213058;28;20042;-71
2022/05/12 05:57:34;;;;;;;31.53;19.87;;;;;;;13.03;86.39;101683.91;5222783;28;20026;-72
2022/05/12 06:00:06;;;;;;;27.77;19.37;;;;;;;13.11;86.31;101691.38;5220489;28;20424;-70
2022/05/12 06:02:38;;;;;;;30.23;18.53;;;;;;;13.20;85.26;101696.09;5224132;28;20036;-70
2022/05/12 06:05:10;;;;;;;33.87;19.80;;;;;;;13.24;85.56;101705.50;5228049;28;20078;-70
2022/05/12 06:07:41;;;;;;;32.10;19.33;;;;;;;13.31;85.27;101708.63;5227755;28;20065;-70
2022/05/12 06:10:13;;;;;;;26.27;18.00;;;;;;;13.31;85.41;101709.47;5223866;28;20029;-70
2022/05/12 06:12:45;;;;;;;34.10;19.50;;;;;;;13.41;84.87;101711.56;5231789;28;20148;-69
2022/05/12 06:15:16;;;;;;;31.83;18.47;;;;;;;13.50;84.76;101710.19;5209925;28;20034;-69
2022/05/12 06:17:48;;;;;;;30.37;19.03;;;;;;;13.47;86.19;101719.13;5213861;28;20124;-70
2022/05/12 06:20:20;;;;;;;34.63;19.40;;;;;;;13.57;84.40;101710.69;5209168;28;20694;-70
2022/05/12 06:22:52;;;;;;;28.90;18.90;;;;;;;13.66;84.28;101726.81;5216026;28;20099;-70
2022/05/12 06:25:23;;;;;;;30.13;18.13;;;;;;;13.64;84.01;101715.53;5210290;28;20084;-71
2022/05/12 06:27:55;;;;;;;30.00;18.50;;;;;;;13.78;84.11;101732.28;5216361;28;20714;-70
2022/05/12 06:30:27;;;;;;;34.07;20.03;;;;;;;13.86;84.25;101737.09;5214744;28;20084;-70
2022/05/12 06:33:00;;;;;;;33.33;18.77;;;;;;;13.98;83.21;101730.25;5218827;28;20394;-70
2022/05/12 06:35:32;;;;;;;29.83;18.17;;;;;;;13.97;81.98;101739.94;5211444;28;20057;-70
2022/05/12 06:38:03;;;;;;;38.60;18.97;;;;;;;13.99;81.89;101735.41;5220363;28;20562;-70
2022/05/12 06:40:34;;;;;;;29.40;17.87;;;;;;;13.94;81.30;101715.56;5210137;28;20125;-70
2022/05/12 06:43:07;;;;;;;33.90;18.93;;;;;;;14.09;81.04;101740.97;5209087;28;20568;-71
2022/05/12 06:45:40;;;;;;;30.77;17.70;;;;;;;14.22;80.56;101741.09;5218798;28;20036;-70
2022/05/12 06:48:11;;;;;;;26.57;16.77;;;;;;;14.21;79.90;101749.91;5220091;28;20066;-70
2022/05/12 06:50:43;;;;;;;28.63;16.43;;;;;;;14.17;79.72;101745.78;5228184;28;20171;-69
2022/05/12 06:53:14;;;;;;;26.10;16.63;;;;;;;14.20;79.07;101752.63;5228411;28;20056;-70
2022/05/12 06:55:45;;;;;;;27.50;16.63;;;;;;;14.27;78.88;101751.34;5218234;28;20033;-70
2022/05/12 06:58:17;;;;;;;26.83;17.07;;;;;;;14.30;77.67;101759.03;5212507;28;20156;-70
2022/05/12 07:00:49;;;;;;;23.70;15.97;;;;;;;14.46;76.80;101752.81;5215416;28;20051;-70
2022/05/12 07:03:20;;;;;;;25.33;15.40;;;;;;;14.57;75.65;101758.28;5218442;28;20034;-70
2022/05/12 07:05:51;;;;;;;25.23;15.53;;;;;;;14.58;75.21;101759.13;5209103;28;20042;-70
2022/05/12 07:08:23;;;;;;;27.80;16.17;;;;;;;14.64;75.48;101766.66;5206241;28;20464;-74
2022/05/12 07:10:55;;;;;;;27.30;15.30;;;;;;;14.63;75.05;101767.59;5209888;28;20032;-74
2022/05/12 07:13:26;;;;;;;26.33;14.63;;;;;;;14.60;74.33;101765.16;5217094;28;20025;-75
2022/05/12 07:15:57;;;;;;;28.50;12.90;;;;;;;14.54;72.65;101760.28;5217158;28;20026;-75
2022/05/12 07:18:30;;;;;;;21.83;14.10;;;;;;;14.63;72.77;101773.72;5216704;28;20460;-75
2022/05/12 07:26:45;;;;;;;16.47;11.50;;;;;;;15.31;67.99;101775.66;5215428;28;20398;-76
2022/05/12 07:29:19;;;;;;;21.15;13.30;;;;;;;15.58;68.16;101776.56;5216569;28;20048;-74
2022/05/12 07:31:50;;;;;;;;;;;;;;;16.31;68.41;101777.00;5220119;28;20026;-74
2022/05/12 07:34:22;;;;;;;22.00;12.00;;;;;;;17.07;63.34;101777.03;5226453;28;20605;-74
2022/05/12 07:36:53;;;;;;;19.27;12.40;;;;;;;17.47;60.80;101781.22;5215376;28;20030;-76
2022/05/12 07:39:28;;;;;;;15.37;11.33;;;;;;;17.97;58.84;101788.94;5210157;28;20038;-75
2022/05/12 07:42:01;;;;;;;17.73;11.60;;;;;;;18.16;58.11;101776.94;5217124;28;20088;-75
2022/05/12 07:44:34;;;;;;;20.87;11.70;;;;;;;17.95;58.72;101782.91;5216264;28;20032;-75
2022/05/12 07:47:09;;;;;;;15.03;10.23;;;;;;;17.96;57.97;101794.34;5207291;28;20525;-76
2022/05/12 07:49:42;;;;;;;17.10;10.13;;;;;;;17.98;58.47;101782.66;5213302;28;20038;-75
2022/05/12 07:52:15;;;;;;;12.37;9.70;;;;;;;18.88;56.43;101792.56;5212702;28;20026;-76
2022/05/12 07:54:46;;;;;;;14.97;9.23;;;;;;;19.37;53.45;101796.69;5210460;28;20033;-76
2022/05/12 07:57:17;;;;;;;15.83;8.17;;;;;;;19.90;50.23;101787.81;5206107;28;20511;-75
2022/05/12 07:59:48;;;;;;;13.43;7.73;;;;;;;19.75;50.09;101784.66;5211151;28;20038;-77
2022/05/12 08:02:20;;;;;;;13.30;8.40;;;;;;;19.72;49.18;101800.88;5224344;28;20033;-77
2022/05/12 08:04:51;;;;;;;13.20;9.27;;;;;;;19.36;48.67;101795.00;5213039;28;20044;-77
2022/05/12 08:07:22;;;;;;;13.40;7.87;;;;;;;18.80;50.02;101803.78;5216100;28;20053;-78
2022/05/12 08:09:54;;;;;;;11.93;7.17;;;;;;;19.99;48.66;101799.47;5207225;28;20089;-76
2022/05/12 08:12:26;;;;;;;11.60;6.73;;;;;;;20.45;45.67;101801.84;5216030;28;20088;-76
2022/05/12 08:14:57;;;;;;;10.80;7.23;;;;;;;21.40;44.25;101806.81;5213574;28;20116;-77
2022/05/12 08:17:29;;;;;;;8.90;6.60;;;;;;;21.80;43.13;101789.97;5220663;28;20112;-76
2022/05/12 08:20:00;;;;;;;8.45;6.22;;;;;;;22.33;41.47;101809.03;5215048;28;20040;-76
2022/05/12 08:22:33;;;;;;;12.38;6.32;;;;;;;21.62;40.40;101801.31;5232391;28;20038;-76
2022/05/12 08:25:07;;;;;;;11.35;6.50;;;;;;;21.68;41.29;101813.25;5216316;28;20403;-78
2022/05/12 08:27:39;;;;;;;13.52;6.80;;;;;;;22.20;40.49;101812.84;5217906;28;20051;-71
2022/05/12 08:30:15;;;;;;;12.40;7.28;;;;;;;22.99;39.19;101810.81;5220074;28;20033;-73
2022/05/12 08:32:47;;;;;;;12.40;6.00;;;;;;;23.26;38.00;101806.41;5223655;28;20454;-74
2022/05/12 08:35:18;;;;;;;12.20;6.28;;;;;;;23.16;37.80;101806.47;5217998;28;20121;-74
2022/05/12 08:37:50;;;;;;;14.85;6.13;;;;;;;23.41;37.12;101815.59;5219911;28;20033;-74
2022/05/12 08:40:35;;;;;;;9.43;5.25;;;;;;;24.32;37.28;101811.00;5222834;28;20026;-74
2022/05/12 08:43:19;;;;;;;10.38;5.00;;;;;;;24.65;36.29;101806.63;5226625;28;20033;-75
2022/05/12 08:45:52;;;;;;;14.05;5.28;;;;;;;24.63;33.03;101811.28;5216692;28;20401;-76
2022/05/12 08:48:24;;;;;;;11.27;6.30;;;;;;;24.98;33.69;101805.03;5226132;28;20033;-78
2022/05/12 08:50:56;;;;;;;10.35;5.57;;;;;;;25.66;32.99;101790.69;5215911;28;20029;-75
2022/05/12 08:53:32;;;;;;;7.68;4.95;;;;;;;25.73;31.47;101813.97;5222683;28;20036;-76
2022/05/12 08:56:04;;;;;;;13.30;4.70;;;;;;;25.43;31.41;101807.44;5217524;28;20030;-76
2022/05/12 08:58:39;;;;;;;8.85;4.40;;;;;;;26.24;31.31;101809.31;5229669;28;20038;-76
2022/05/12 09:01:23;;;;;;;8.75;3.67;;;;;;;26.96;31.33;101820.06;5221392;28;20792;-76
2022/05/12 09:04:07;;;;;;;8.43;4.07;;;;;;;26.40;30.05;101812.97;5223108;28;20113;-77
2022/05/12 09:06:53;;;;;;;11.00;4.10;;;;;;;26.35;32.44;101805.44;5213846;28;20038;-76
2022/05/12 09:09:33;;;;;;;11.38;5.50;;;;;;;26.07;31.70;101824.63;5211148;28;20030;-76
2022/05/12 09:12:26;;;;;;;9.80;5.40;;;;;;;25.55;32.68;101813.28;5225449;28;20061;-75
2022/05/12 09:15:16;;;;;;;7.68;5.18;;;;;;;25.15;33.75;101826.53;5225771;28;20068;-76
2022/05/12 09:18:15;;;;;;;8.85;4.63;;;;;;;24.49;33.54;101803.91;5223798;28;20033;-77
2022/05/12 09:20:47;;;;;;;8.93;4.70;;;;;;;24.01;31.40;101807.81;5209770;28;20045;-76
2022/05/12 09:23:18;;;;;;;7.53;5.45;;;;;;;23.83;32.31;101823.06;5220424;28;20033;-76
2022/05/12 09:25:52;;;;;;;7.18;4.72;;;;;;;23.79;32.07;101827.91;5216422;28;20033;-76
2022/05/12 09:28:35;;;;;;;10.20;5.05;;;;;;;24.52;31.95;101828.50;5226615;28;20021;-76
2022/05/12 09:31:12;;;;;;;6.57;4.07;;;;;;;25.21;31.76;101821.34;5229373;28;20038;-76
2022/05/12 09:33:46;;;;;;;9.93;4.47;;;;;;;24.76;30.68;101820.72;5221019;28;20029;-76
2022/05/12 09:36:23;;;;;;;8.32;4.50;;;;;;;24.84;31.77;101830.59;5212150;28;20025;-76
2022/05/12 09:38:55;;;;;;;8.48;4.10;;;;;;;23.68;32.07;101819.16;5215046;28;20428;-76
2022/05/12 09:41:40;;;;;;;9.35;5.63;;;;;;;23.91;32.19;101815.94;5233093;28;20084;-77
2022/05/12 09:44:21;;;;;;;9.98;3.38;;;;;;;24.09;31.55;101812.38;5216751;28;20025;-74
2022/05/12 09:47:07;;;;;;;8.38;4.25;;;;;;;23.96;31.40;101822.66;5212140;28;20063;-72
2022/05/12 09:49:44;;;;;;;9.75;4.63;;;;;;;23.55;31.80;101808.00;5232078;28;20032;-76
2022/05/12 09:52:27;;;;;;;7.43;3.75;;;;;;;23.43;31.29;101818.09;5216651;28;20426;-76
2022/05/12 09:55:14;;;;;;;12.95;4.32;;;;;;;23.65;32.53;101814.09;5213473;28;20033;-76
2022/05/12 09:57:51;;;;;;;6.03;3.60;;;;;;;24.53;31.38;101808.75;5221237;28;20018;-76
2022/05/12 10:00:32;;;;;;;9.70;3.08;;;;;;;24.40;29.23;101811.88;5227686;28;20040;-76
2022/05/12 10:09:08;;;;;;;11.30;4.00;;;;;;;24.10;30.08;101800.69;5221422;28;20041;-77
2022/05/12 10:11:45;;;;;;;7.32;3.58;;;;;;;24.82;29.48;101812.00;5223954;28;20026;-76
2022/05/12 10:14:49;;;;;;;6.05;2.83;;;;;;;25.05;29.66;101806.06;5223318;28;20051;-75
2022/05/12 10:17:34;;;;;;;5.10;2.60;;;;;;;24.80;28.61;101808.69;5215647;28;20040;-76
2022/05/12 10:20:10;;;;;;;4.80;2.10;;;;;;;23.87;29.32;101798.53;5230791;28;20429;-76
2022/05/12 10:22:48;;;;;;;10.05;2.95;;;;;;;23.97;29.59;101811.81;5212391;28;20022;-76
2022/05/12 10:25:47;;;;;;;8.82;3.20;;;;;;;23.73;30.71;101813.31;5215130;28;20095;-77
2022/05/12 10:28:28;;;;;;;9.85;3.55;;;;;;;23.86;30.56;101812.06;5218209;28;20079;-77
2022/05/12 10:31:21;;;;;;;5.45;2.63;;;;;;;24.00;30.94;101810.66;5213448;28;20547;-77
2022/05/12 10:34:20;;;;;;;7.35;2.45;;;;;;;24.36;30.15;101813.22;5210787;28;20037;-77
2022/05/12 10:37:15;;;;;;;7.63;2.42;;;;;;;24.69;30.46;101808.97;5212672;28;20053;-76
2022/05/12 10:40:09;;;;;;;7.15;2.70;;;;;;;24.58;29.84;101804.75;5230549;28;20038;-76
2022/05/12 10:43:17;;;;;;;7.20;3.42;;;;;;;24.45;29.63;101813.25;5209732;28;20044;-76
2022/05/12 10:45:57;;;;;;;6.15;2.70;;;;;;;24.04;29.38;101814.69;5212281;28;20112;-76
2022/05/12 10:48:32;;;;;;;5.18;2.35;;;;;;;23.59;30.30;101811.19;5216678;28;20547;-76
2022/05/12 10:51:06;;;;;;;6.57;2.67;;;;;;;23.40;30.21;101813.88;5224851;28;20042;-76
2022/05/12 10:53:57;;;;;;;;;;;;;;;23.96;29.80;101798.59;5210238;28;20054;-77
2022/05/12 10:56:41;;;;;;;8.88;2.45;;;;;;;23.44;31.07;101814.44;5221634;28;19924;-77
2022/05/12 10:59:21;;;;;;;6.05;2.50;;;;;;;23.25;30.57;101810.06;5220165;28;20040;-77
2022/05/12 11:01:58;;;;;;;8.10;2.50;;;;;;;23.35;29.80;101810.84;5225771;28;20026;-74
2022/05/12 11:04:38;;;;;;;8.05;3.10;;;;;;;23.28;30.16;101815.97;5220096;28;20488;-74
2022/05/12 11:07:38;;;;;;;11.35;3.25;;;;;;;23.60;30.65;101803.03;5216712;28;20457;-74
2022/05/12 11:10:29;;;;;;;6.72;2.80;;;;;;;23.95;30.81;101799.59;5211207;28;20081;-74
2022/05/12 11:13:34;;;;;;;8.45;3.10;;;;;;;24.26;30.12;101799.94;5218984;28;20377;-74
2022/05/12 11:16:14;;;;;;;5.43;3.00;;;;;;;24.29;29.78;101801.47;5217532;28;20021;-74
2022/05/12 11:19:01;;;;;;;5.95;2.40;;;;;;;24.24;29.31;101782.38;5220399;28;20086;-75
2022/05/12 11:21:40;;;;;;;10.38;2.25;;;;;;;24.00;28.88;101799.97;5218630;28;20025;-75
2022/05/12 11:24:39;;;;;;;9.80;3.13;;;;;;;24.00;28.89;101800.78;5218945;28;20014;-74
2022/05/12 11:27:33;;;;;;;6.63;2.15;;;;;;;24.08;28.79;101794.66;5215539;28;20034;-75
2022/05/12 11:30:29;;;;;;;7.35;2.22;;;;;;;24.22;28.40;101797.75;5214197;28;20038;-75
2022/05/12 11:33:19;;;;;;;8.32;2.90;;;;;;;24.20;28.50;101792.56;5220293;28;20528;-76
2022/05/12 11:35:52;;;;;;;6.38;2.92;;;;;;;24.43;28.89;101788.47;5217674;28;20550;-75
2022/05/12 11:38:39;;;;;;;10.45;2.22;;;;;;;24.42;28.29;101776.91;5217111;28;20664;-75
2022/05/12 11:41:19;;;;;;;9.27;2.35;;;;;;;24.02;28.42;101784.56;5216065;28;20022;-76
2022/05/12 11:44:24;;;;;;;7.43;1.98;;;;;;;24.49;28.34;101777.13;5217205;28;20177;-76
2022/05/12 11:46:55;;;;;;;4.68;1.85;;;;;;;24.25;27.59;101778.69;5217583;28;20392;-76
2022/05/12 11:49:31;;;;;;;7.45;2.38;;;;;;;23.99;28.52;101779.53;5220764;28;20096;-75
2022/05/12 11:52:29;;;;;;;7.10;2.08;;;;;;;24.24;28.23;101780.56;5220080;28;20036;-76
2022/05/12 11:55:06;;;;;;;10.05;2.25;;;;;;;23.79;28.13;101774.44;5217247;28;20488;-76
2022/05/12 11:57:41;;;;;;;6.68;2.45;;;;;;;24.01;28.01;101783.75;5219075;28;20060;-76
2022/05/12 12:00:35;;;;;;;6.72;1.80;;;;;;;24.01;27.67;101782.91;5215186;28;20029;-75
2022/05/12 12:03:19;;;;;;;5.97;2.20;;;;;;;23.92;28.06;101784.69;5217119;28;20064;-76
2022/05/12 12:05:50;;;;;;;8.20;1.77;;;;;;;23.81;27.70;101783.09;5222087;28;20091;-76
2022/05/12 12:08:30;;;;;;;7.40;1.75;;;;;;;23.82;28.26;101779.47;5222432;28;20102;-76
2022/05/12 12:11:13;;;;;;;7.75;1.90;;;;;;;23.83;28.07;101782.94;5221096;28;20767;-76
2022/05/12 12:13:47;;;;;;;6.35;1.88;;;;;;;23.55;28.21;101778.59;5222994;28;20586;-76